createdAt,value
2018-07-15T00:00:53.132Z,73.89
2018-07-15T00:03:58.833Z,73.77
2018-07-15T00:07:04.773Z,74.17
2018-07-15T00:10:10.603Z,73.66
2018-07-15T00:13:16.732Z,74.16
2018-07-15T00:16:23.410Z,74.44
2018-07-15T00:19:30.722Z,74.01
2018-07-15T00:22:36.882Z,74.60
2018-07-15T00:25:42.678Z,74.12
2018-07-15T00:28:48.576Z,74.40
2018-07-15T00:31:54.359Z,74.04
2018-07-15T00:35:01.520Z,74.17
2018-07-15T00:38:08.479Z,74.89
2018-07-15T00:41:14.185Z,74.27
2018-07-15T00:44:19.646Z,74.43
2018-07-15T00:47:24.649Z,74.75
2018-07-15T00:50:30.445Z,74.44
2018-07-15T00:53:35.637Z,74.96
2018-07-15T00:56:40.523Z,74.90
2018-07-15T00:59:46.749Z,74.53
2018-07-15T01:02:52.867Z,74.90
2018-07-15T01:05:58.502Z,75.06
2018-07-15T01:09:04.925Z,75.38
2018-07-15T01:12:09.777Z,75.55
2018-07-15T01:15:15.692Z,75.17
2018-07-15T01:18:21.305Z,75.51
2018-07-15T01:21:26.473Z,75.42
2018-07-15T01:24:32.921Z,75.73
2018-07-15T01:27:38.849Z,75.63
2018-07-15T01:30:44.902Z,75.20
2018-07-15T01:33:50.350Z,75.85
2018-07-15T01:36:56.948Z,75.17
2018-07-15T01:40:02.782Z,76.32
2018-07-15T01:43:08.149Z,75.25
2018-07-15T01:46:13.409Z,75.86
2018-07-15T01:49:18.937Z,75.33
2018-07-15T01:52:24.892Z,75.71
2018-07-15T01:55:30.039Z,75.45
2018-07-15T01:58:35.586Z,75.54
2018-07-15T02:01:41.534Z,76.04
2018-07-15T02:04:47.293Z,76.27
2018-07-15T02:07:52.218Z,75.93
2018-07-15T02:10:57.337Z,76.36
2018-07-15T02:14:03.806Z,76.42
2018-07-15T02:17:10.917Z,76.36
2018-07-15T02:20:17.697Z,76.53
2018-07-15T02:23:23.928Z,75.99
2018-07-15T02:26:29.792Z,75.90
2018-07-15T02:29:34.657Z,76.04
2018-07-15T02:32:39.537Z,76.23
2018-07-15T02:35:44.674Z,76.67
2018-07-15T02:38:49.808Z,76.45
2018-07-15T02:41:56.167Z,76.59
2018-07-15T02:45:01.537Z,76.38
2018-07-15T02:48:06.677Z,75.92
2018-07-15T02:51:12.720Z,76.34
2018-07-15T02:54:17.852Z,76.06
2018-07-15T02:57:23.047Z,76.23
2018-07-15T03:00:29.273Z,76.93
2018-07-15T03:03:34.455Z,76.09
2018-07-15T03:06:41.639Z,76.97
2018-07-15T03:09:47.401Z,76.54
2018-07-15T03:12:53.436Z,76.28
2018-07-15T03:15:58.558Z,76.52
2018-07-15T03:19:03.697Z,76.54
2018-07-15T03:22:10.757Z,76.83
2018-07-15T03:25:17.749Z,76.93
2018-07-15T03:28:23.513Z,76.92
2018-07-15T03:31:28.642Z,77.32
2018-07-15T03:34:33.761Z,77.10
2018-07-15T03:37:39.803Z,76.81
2018-07-15T03:40:47.901Z,77.20
2018-07-15T03:43:53.778Z,77.29
2018-07-15T03:46:59.925Z,76.99
2018-07-15T03:50:05.461Z,77.36
2018-07-15T03:53:10.603Z,77.46
2018-07-15T03:56:16.049Z,77.42
2018-07-15T03:59:21.606Z,77.24
2018-07-15T04:02:27.485Z,77.07
2018-07-15T04:05:32.625Z,77.49
2018-07-15T04:08:37.783Z,77.40
2018-07-15T04:11:43.402Z,77.37
2018-07-15T04:14:50.273Z,77.09
2018-07-15T04:17:59.973Z,77.42
2018-07-15T04:21:05.110Z,77.20
2018-07-15T04:24:10.241Z,76.85
2018-07-15T04:27:16.690Z,76.69
2018-07-15T04:30:22.833Z,77.40
2018-07-15T04:33:28.573Z,77.20
2018-07-15T04:36:34.708Z,76.93
2018-07-15T04:39:40.245Z,76.24
2018-07-15T04:42:45.333Z,76.27
2018-07-15T04:45:50.432Z,75.98
2018-07-15T04:48:55.558Z,76.50
2018-07-15T04:52:02.357Z,76.45
2018-07-15T04:55:07.806Z,76.55
2018-07-15T04:58:14.877Z,76.57
2018-07-15T05:01:21.161Z,76.71
2018-07-15T05:04:28.341Z,76.22
2018-07-15T05:07:34.083Z,76.44
2018-07-15T05:10:40.101Z,76.93
2018-07-15T05:13:47.437Z,76.46
2018-07-15T05:16:53.199Z,77.15
2018-07-15T05:19:59.206Z,78.20
2018-07-15T05:23:06.169Z,77.27
2018-07-15T05:26:13.092Z,78.32
2018-07-15T05:29:18.860Z,78.28
2018-07-15T05:32:23.969Z,78.49
2018-07-15T05:35:29.455Z,78.97
2018-07-15T05:38:36.445Z,77.91
2018-07-15T05:41:43.657Z,77.06
2018-07-15T05:44:49.106Z,77.60
2018-07-15T05:47:54.273Z,77.16
2018-07-15T05:51:00.160Z,76.86
2018-07-15T05:54:05.534Z,77.38
2018-07-15T05:57:11.260Z,77.66
2018-07-15T06:00:17.051Z,76.53
2018-07-15T06:03:24.129Z,76.78
2018-07-15T06:06:29.419Z,76.71
2018-07-15T06:09:35.076Z,76.78
2018-07-15T06:12:40.910Z,76.96
2018-07-15T06:15:46.970Z,76.82
2018-07-15T06:18:52.893Z,76.72
2018-07-15T06:21:59.712Z,77.15
2018-07-15T06:25:06.029Z,76.54
2018-07-15T06:28:12.066Z,76.83
2018-07-15T06:31:18.684Z,76.49
2018-07-15T06:34:24.405Z,76.58
2018-07-15T06:37:31.576Z,76.44
2018-07-15T06:40:37.474Z,76.69
2018-07-15T06:43:44.596Z,76.74
2018-07-15T06:46:51.766Z,76.92
2018-07-15T06:49:58.330Z,76.64
2018-07-15T06:53:04.914Z,76.57
2018-07-15T06:56:10.314Z,76.58
2018-07-15T06:59:17.340Z,76.93
2018-07-15T07:02:25.830Z,76.79
2018-07-15T07:05:31.269Z,77.09
2018-07-15T07:08:37.502Z,76.20
2018-07-15T07:11:43.508Z,76.21
2018-07-15T07:14:49.386Z,76.62
2018-07-15T07:17:55.661Z,76.55
2018-07-15T07:21:01.294Z,76.54
2018-07-15T07:24:07.098Z,77.12
2018-07-15T07:27:12.439Z,76.12
2018-07-15T07:30:19.470Z,76.25
2018-07-15T07:33:25.931Z,76.73
2018-07-15T07:36:32.364Z,77.07
2018-07-15T07:39:37.872Z,76.04
2018-07-15T07:42:43.711Z,76.27
2018-07-15T07:45:49.734Z,76.76
2018-07-15T07:48:55.729Z,76.47
2018-07-15T07:52:01.689Z,76.26
2018-07-15T07:55:07.482Z,76.20
2018-07-15T07:58:13.361Z,76.15
2018-07-15T08:01:18.563Z,76.02
2018-07-15T08:04:23.693Z,76.01
2018-07-15T08:07:29.459Z,76.49
2018-07-15T08:10:35.459Z,75.75
2018-07-15T08:13:41.227Z,76.53
2018-07-15T08:16:47.610Z,76.07
2018-07-15T08:19:52.724Z,75.63
2018-07-15T08:22:57.840Z,76.24
2018-07-15T08:26:03.181Z,75.49
2018-07-15T08:29:09.108Z,75.76
2018-07-15T08:32:14.689Z,75.34
2018-07-15T08:35:19.558Z,75.31
2018-07-15T08:38:24.381Z,75.96
2018-07-15T08:41:31.641Z,75.01
2018-07-15T08:44:37.362Z,75.04
2018-07-15T08:47:42.973Z,74.84
2018-07-15T08:50:48.799Z,75.50
2018-07-15T08:53:54.537Z,74.45
2018-07-15T08:56:59.687Z,74.92
2018-07-15T09:00:05.756Z,74.76
2018-07-15T09:03:11.782Z,75.15
2018-07-15T09:06:17.796Z,74.56
2018-07-15T09:09:22.921Z,74.55
2018-07-15T09:12:30.039Z,74.17
2018-07-15T09:15:35.894Z,74.10
2018-07-15T09:18:40.700Z,74.65
2018-07-15T09:21:46.208Z,74.19
2018-07-15T09:24:51.498Z,74.33
2018-07-15T09:27:56.689Z,73.84
2018-07-15T09:31:02.091Z,73.13
2018-07-15T09:34:07.229Z,73.04
2018-07-15T09:37:12.654Z,73.35
2018-07-15T09:40:18.883Z,73.10
2018-07-15T09:43:24.076Z,72.54
2018-07-15T09:46:29.190Z,72.07
2018-07-15T09:49:34.921Z,71.91
2018-07-15T09:52:40.186Z,71.64
2018-07-15T09:55:46.309Z,71.96
2018-07-15T09:58:51.410Z,70.99
2018-07-15T10:01:56.533Z,70.99
2018-07-15T10:05:01.705Z,71.00
2018-07-15T10:08:08.878Z,70.51
2018-07-15T10:11:14.296Z,70.04
2018-07-15T10:14:19.140Z,70.23
2018-07-15T10:17:24.023Z,69.87
2018-07-15T10:20:29.565Z,69.78
2018-07-15T10:23:35.385Z,69.86
2018-07-15T10:26:41.505Z,69.96
2018-07-15T10:29:47.203Z,69.15
2018-07-15T10:32:52.889Z,69.93
2018-07-15T10:35:58.173Z,69.71
2018-07-15T10:39:03.477Z,69.47
2018-07-15T10:42:09.225Z,69.56
2018-07-15T10:45:14.103Z,69.35
2018-07-15T10:48:20.605Z,69.79
2018-07-15T10:51:26.604Z,69.08
2018-07-15T10:54:33.129Z,69.96
2018-07-15T10:57:39.206Z,69.73
2018-07-15T11:00:45.034Z,68.73
2018-07-15T11:03:50.567Z,69.35
2018-07-15T11:06:56.196Z,69.43
2018-07-15T11:10:01.330Z,68.66
2018-07-15T11:13:06.232Z,68.59
2018-07-15T11:16:11.749Z,68.50
2018-07-15T11:19:17.226Z,67.66
2018-07-15T11:22:22.803Z,68.12
2018-07-15T11:25:29.257Z,67.50
2018-07-15T11:28:35.397Z,67.46
2018-07-15T11:31:42.350Z,67.25
2018-07-15T11:34:47.812Z,67.29
2018-07-15T11:37:52.945Z,67.17
2018-07-15T11:41:00.241Z,67.08
2018-07-15T11:44:06.136Z,67.71
2018-07-15T11:47:12.152Z,67.19
2018-07-15T11:50:17.323Z,67.42
2018-07-15T11:53:22.183Z,66.95
2018-07-15T11:56:27.733Z,66.55
2018-07-15T11:59:33.627Z,66.31
2018-07-15T12:02:39.488Z,66.35
2018-07-15T12:05:44.617Z,66.15
2018-07-15T12:08:51.611Z,67.19
2018-07-15T12:11:56.717Z,67.25
2018-07-15T12:15:02.241Z,66.54
2018-07-15T12:18:09.430Z,67.51
2018-07-15T12:21:16.515Z,67.02
2018-07-15T12:24:23.248Z,66.58
2018-07-15T12:27:28.687Z,65.79
2018-07-15T12:30:33.532Z,65.29
2018-07-15T12:33:38.354Z,65.35
2018-07-15T12:36:44.939Z,65.70
2018-07-15T12:39:50.369Z,65.76
2018-07-15T12:42:57.316Z,66.22
2018-07-15T12:46:02.870Z,65.07
2018-07-15T12:49:08.949Z,64.57
2018-07-15T12:52:14.176Z,64.73
2018-07-15T12:55:19.125Z,64.72
2018-07-15T12:58:24.281Z,64.32
2018-07-15T13:01:29.195Z,63.95
2018-07-15T13:04:34.309Z,64.44
2018-07-15T13:07:39.457Z,63.61
2018-07-15T13:10:44.997Z,64.11
2018-07-15T13:13:50.150Z,64.74
2018-07-15T13:16:56.174Z,63.24
2018-07-15T13:20:01.503Z,63.56
2018-07-15T13:23:07.321Z,62.26
2018-07-15T13:26:13.019Z,62.12
2018-07-15T13:29:17.845Z,62.62
2018-07-15T13:32:23.997Z,63.17
2018-07-15T13:35:30.578Z,63.15
2018-07-15T13:38:37.912Z,62.54
2018-07-15T13:41:45.046Z,62.52
2018-07-15T13:44:50.582Z,62.22
2018-07-15T13:47:56.629Z,61.85
2018-07-15T13:51:02.902Z,61.33
2018-07-15T13:54:09.625Z,60.68
2018-07-15T13:57:14.746Z,60.95
2018-07-15T14:00:21.482Z,60.75
2018-07-15T14:03:27.214Z,60.00
2018-07-15T14:06:32.032Z,60.71
2018-07-15T14:09:37.400Z,60.71
2018-07-15T14:12:42.293Z,59.41
2018-07-15T14:15:47.697Z,58.98
2018-07-15T14:18:52.513Z,59.15
2018-07-15T14:21:59.285Z,59.62
2018-07-15T14:25:05.054Z,59.29
2018-07-15T14:28:10.706Z,58.99
2018-07-15T14:31:15.861Z,58.70
2018-07-15T14:34:21.729Z,58.85
2018-07-15T14:37:26.906Z,58.60
2018-07-15T14:40:32.462Z,57.55
2018-07-15T14:43:38.240Z,58.68
2018-07-15T14:46:44.022Z,58.06
2018-07-15T14:49:50.030Z,58.16
2018-07-15T14:52:55.181Z,58.59
2018-07-15T14:56:01.859Z,59.46
2018-07-15T14:59:08.902Z,58.65
2018-07-15T15:02:14.585Z,58.05
2018-07-15T15:05:21.359Z,58.36
2018-07-15T15:08:26.679Z,58.59
2018-07-15T15:11:31.514Z,58.01
2018-07-15T15:14:38.274Z,57.46
2018-07-15T15:17:44.155Z,58.59
2018-07-15T15:20:49.941Z,57.76
2018-07-15T15:23:56.154Z,57.50
2018-07-15T15:27:01.794Z,58.20
2018-07-15T15:30:06.917Z,58.18
2018-07-15T15:33:12.166Z,58.61
2018-07-15T15:36:17.401Z,58.00
2018-07-15T15:39:22.240Z,58.05
2018-07-15T15:42:28.479Z,58.27
2018-07-15T15:45:34.482Z,58.98
2018-07-15T15:48:39.334Z,57.99
2018-07-15T15:51:45.198Z,58.52
2018-07-15T15:54:50.042Z,58.72
2018-07-15T15:57:55.299Z,59.22
2018-07-15T16:01:01.006Z,58.06
2018-07-15T16:04:06.993Z,58.45
2018-07-15T16:07:11.826Z,58.13
2018-07-15T16:10:17.313Z,58.26
2018-07-15T16:13:22.177Z,58.70
2018-07-15T16:16:28.333Z,59.01
2018-07-15T16:19:33.969Z,58.45
2018-07-15T16:22:38.834Z,58.16
2018-07-15T16:25:45.409Z,58.01
2018-07-15T16:28:51.264Z,57.72
2018-07-15T16:31:56.963Z,58.00
2018-07-15T16:35:02.794Z,58.39
2018-07-15T16:38:07.645Z,57.69
2018-07-15T16:41:13.206Z,57.86
2018-07-15T16:44:19.085Z,56.77
2018-07-15T16:47:25.324Z,58.08
2018-07-15T16:50:30.189Z,57.91
2018-07-15T16:53:35.050Z,57.98
2018-07-15T16:56:40.658Z,58.24
2018-07-15T16:59:45.861Z,58.27
2018-07-15T17:02:51.673Z,58.03
2018-07-15T17:05:57.527Z,58.31
2018-07-15T17:09:02.689Z,58.69
2018-07-15T17:12:07.751Z,58.44
2018-07-15T17:15:12.998Z,58.50
2018-07-15T17:18:19.073Z,58.73
2018-07-15T17:21:23.939Z,59.12
2018-07-15T17:24:28.742Z,58.83
2018-07-15T17:27:34.819Z,58.64
2018-07-15T17:30:39.636Z,59.99
2018-07-15T17:33:44.529Z,59.34
2018-07-15T17:36:49.513Z,60.22
2018-07-15T17:39:54.756Z,60.08
2018-07-15T17:43:00.482Z,60.86
2018-07-15T17:46:05.930Z,59.93
2018-07-15T17:49:11.791Z,60.94
2018-07-15T17:52:17.951Z,60.09
2018-07-15T17:55:22.809Z,59.98
2018-07-15T17:58:28.344Z,60.32
2018-07-15T18:01:35.046Z,61.23
2018-07-15T18:04:40.840Z,60.54
2018-07-15T18:07:46.657Z,61.65
2018-07-15T18:10:52.318Z,60.59
2018-07-15T18:13:58.090Z,61.53
2018-07-15T18:17:03.228Z,61.62
2018-07-15T18:20:08.893Z,61.85
2018-07-15T18:23:14.538Z,61.13
2018-07-15T18:26:20.388Z,61.49
2018-07-15T18:29:26.642Z,62.08
2018-07-15T18:32:32.265Z,62.26
2018-07-15T18:35:38.118Z,61.86
2018-07-15T18:38:42.999Z,62.68
2018-07-15T18:41:47.849Z,61.94
2018-07-15T18:44:53.202Z,62.54
2018-07-15T18:47:58.222Z,62.21
2018-07-15T18:51:04.334Z,62.12
2018-07-15T18:54:10.097Z,62.12
2018-07-15T18:57:17.752Z,62.99
2018-07-15T19:00:22.914Z,63.02
2018-07-15T19:03:28.006Z,62.55
2018-07-15T19:06:33.689Z,62.56
2018-07-15T19:09:38.853Z,62.91
2018-07-15T19:12:44.633Z,63.17
2018-07-15T19:15:50.396Z,63.54
2018-07-15T19:18:56.170Z,63.32
2018-07-15T19:22:02.731Z,63.82
2018-07-15T19:25:08.543Z,63.31
2018-07-15T19:28:15.812Z,63.15
2018-07-15T19:31:21.445Z,64.02
2018-07-15T19:34:26.318Z,63.06
2018-07-15T19:37:31.154Z,62.87
2018-07-15T19:40:36.742Z,63.10
2018-07-15T19:43:42.887Z,62.72
2018-07-15T19:46:48.609Z,63.06
2018-07-15T19:49:54.453Z,63.33
2018-07-15T19:52:59.525Z,62.75
2018-07-15T19:56:04.713Z,62.45
2018-07-15T19:59:10.452Z,63.16
2018-07-15T20:02:15.605Z,62.69
2018-07-15T20:05:20.678Z,63.45
2018-07-15T20:08:26.429Z,62.73
2018-07-15T20:11:32.215Z,62.89
2018-07-15T20:14:37.662Z,63.08
2018-07-15T20:17:43.466Z,63.42
2018-07-15T20:20:50.228Z,63.75
2018-07-15T20:23:56.002Z,63.18
2018-07-15T20:27:01.779Z,63.70
2018-07-15T20:30:07.950Z,63.94
2018-07-15T20:33:13.720Z,63.75
2018-07-15T20:36:20.925Z,63.98
2018-07-15T20:39:26.569Z,63.85
2018-07-15T20:42:32.439Z,63.95
2018-07-15T20:45:37.617Z,64.05
2018-07-15T20:48:42.790Z,63.86
2018-07-15T20:51:47.682Z,65.05
2018-07-15T20:54:53.406Z,64.35
2018-07-15T20:57:58.793Z,64.94
2018-07-15T21:01:04.484Z,65.25
2018-07-15T21:04:09.357Z,64.57
2018-07-15T21:07:30.578Z,64.41
2018-07-15T21:10:35.642Z,65.64
2018-07-15T21:13:42.482Z,65.55
2018-07-15T21:16:48.901Z,65.02
2018-07-15T21:19:53.730Z,65.98
2018-07-15T21:22:59.296Z,65.62
2018-07-15T21:26:05.021Z,65.61
2018-07-15T21:29:10.839Z,66.01
2018-07-15T21:32:16.298Z,65.87
2018-07-15T21:35:21.409Z,65.77
2018-07-15T21:38:26.221Z,65.82
2018-07-15T21:41:31.570Z,65.81
2018-07-15T21:44:36.489Z,65.95
2018-07-15T21:47:41.576Z,66.18
2018-07-15T21:50:46.390Z,66.16
2018-07-15T21:53:52.246Z,66.06
2018-07-15T21:56:57.944Z,67.09
2018-07-15T22:00:02.972Z,66.32
2018-07-15T22:03:08.369Z,66.83
2018-07-15T22:06:24.355Z,66.62
2018-07-15T22:09:56.881Z,66.74
2018-07-15T22:13:01.782Z,66.76
2018-07-15T22:16:06.989Z,67.17
2018-07-15T22:19:12.539Z,67.16
2018-07-15T22:22:18.338Z,67.32
2018-07-15T22:25:23.195Z,67.34
2018-07-15T22:28:28.034Z,67.39
2018-07-15T22:31:32.949Z,67.50
2018-07-15T22:34:38.826Z,68.39
2018-07-15T22:37:44.440Z,67.76
2018-07-15T22:40:50.412Z,68.29
2018-07-15T22:43:56.197Z,68.17
2018-07-15T22:47:03.406Z,68.29
2018-07-15T22:50:08.941Z,68.03
2018-07-15T22:53:14.349Z,68.06
2018-07-15T22:56:19.287Z,67.95
2018-07-15T22:59:24.463Z,68.08
2018-07-15T23:02:31.682Z,68.78
2018-07-15T23:05:51.343Z,68.95
2018-07-15T23:08:57.541Z,68.30
2018-07-15T23:12:03.797Z,69.07
2018-07-15T23:15:10.369Z,69.07
2018-07-15T23:18:16.865Z,68.90
2018-07-15T23:21:22.564Z,69.85
2018-07-15T23:24:27.401Z,69.26
2018-07-15T23:27:33.191Z,70.24
2018-07-15T23:30:39.906Z,70.28
2018-07-15T23:33:45.453Z,70.73
2018-07-15T23:36:50.295Z,69.68
2018-07-15T23:39:55.562Z,69.53
2018-07-15T23:43:01.641Z,70.55
2018-07-15T23:46:07.747Z,70.42
2018-07-15T23:49:12.627Z,70.12
2018-07-15T23:52:17.782Z,70.82
2018-07-15T23:55:23.865Z,70.32
2018-07-15T23:58:29.744Z,70.63
